Time,TemperatureF,DewpointF,PressureIn,WindDirection,WindDirectionDegrees,WindSpeedMPH,WindSpeedGustMPH,Humidity,HourlyPrecipIn,Conditions,Clouds,dailyrainin,SoftwareType,DateUTC
2013-05-24 00:00:00,68.4,65.3,29.73,SSE,157,0.0,-999.0,90,-99.99,,,0.00,Acu-Link.com,2013-05-24 04:00:00,
2013-05-24 00:15:00,68.4,65.3,29.73,SSE,157,1.1,-999.0,90,-99.99,,,0.00,Acu-Link.com,2013-05-24 04:15:00,
2013-05-24 00:30:00,68.4,65.7,29.73,SW,225,0.0,-999.0,91,-99.99,,,0.00,Acu-Link.com,2013-05-24 04:30:00,
2013-05-24 00:46:00,68.2,65.5,29.71,SSE,157,0.0,-999.0,91,-99.99,,,0.00,Acu-Link.com,2013-05-24 04:46:00,
2013-05-24 01:01:00,68.0,65.6,29.70,WSW,247,0.0,-999.0,92,-99.99,,,0.00,Acu-Link.com,2013-05-24 05:01:00,
2013-05-24 01:16:00,67.6,65.2,29.70,WSW,247,0.0,-999.0,92,-99.99,,,0.00,Acu-Link.com,2013-05-24 05:16:00,
2013-05-24 01:31:00,67.5,65.4,29.71,SSW,202,1.1,-999.0,93,-99.99,,,0.00,Acu-Link.com,2013-05-24 05:31:00,
2013-05-24 01:46:00,67.5,65.4,29.71,NW,315,0.0,-999.0,93,-99.99,,,0.00,Acu-Link.com,2013-05-24 05:46:00,
2013-05-24 02:02:00,67.5,65.7,29.71,West,270,2.2,-999.0,94,-99.99,,,0.01,Acu-Link.com,2013-05-24 06:02:00,
2013-05-24 02:17:00,67.3,65.8,29.72,North,0,0.0,-999.0,95,-99.99,,,0.09,Acu-Link.com,2013-05-24 06:17:00,
2013-05-24 02:32:00,65.5,63.7,29.71,West,270,0.0,-999.0,94,-99.99,,,0.10,Acu-Link.com,2013-05-24 06:32:00,
2013-05-24 02:47:00,65.3,63.5,29.70,NNE,22,0.0,-999.0,94,-99.99,,,0.12,Acu-Link.com,2013-05-24 06:47:00,
2013-05-24 03:02:00,65.1,63.3,29.69,SE,135,0.0,-999.0,94,-99.99,,,0.14,Acu-Link.com,2013-05-24 07:02:00,
2013-05-24 03:18:00,64.9,63.4,29.69,East,90,0.0,-999.0,95,-99.99,,,0.17,Acu-Link.com,2013-05-24 07:18:00,
2013-05-24 03:33:00,64.8,63.3,29.68,WNW,292,0.0,-999.0,95,-99.99,,,0.17,Acu-Link.com,2013-05-24 07:33:00,
2013-05-24 03:48:00,64.8,63.3,29.69,NNE,22,0.0,-999.0,95,-99.99,,,0.17,Acu-Link.com,2013-05-24 07:48:00,
2013-05-24 04:03:00,64.6,63.1,29.69,NNE,22,0.0,-999.0,95,-99.99,,,0.17,Acu-Link.com,2013-05-24 08:03:00,
2013-05-24 04:19:00,64.6,63.1,29.69,NNE,22,0.0,-999.0,95,-99.99,,,0.17,Acu-Link.com,2013-05-24 08:19:00,
2013-05-24 04:34:00,64.4,62.9,29.68,ESE,112,0.0,-999.0,95,-99.99,,,0.18,Acu-Link.com,2013-05-24 08:34:00,
2013-05-24 04:49:00,64.2,62.7,29.69,ESE,112,0.0,-999.0,95,-99.99,,,0.18,Acu-Link.com,2013-05-24 08:49:00,
2013-05-24 05:04:00,64.2,63.0,29.69,ESE,112,0.0,-999.0,96,-99.99,,,0.18,Acu-Link.com,2013-05-24 09:04:00,
2013-05-24 05:19:00,64.2,63.0,29.69,ESE,112,0.0,-999.0,96,-99.99,,,0.18,Acu-Link.com,2013-05-24 09:19:00,
2013-05-24 05:34:00,64.4,63.2,29.70,WSW,247,0.0,-999.0,96,-99.99,,,0.18,Acu-Link.com,2013-05-24 09:34:00,
2013-05-24 05:49:00,64.2,63.0,29.70,WSW,247,0.0,-999.0,96,-99.99,,,0.18,Acu-Link.com,2013-05-24 09:49:00,
2013-05-24 06:05:00,63.9,62.7,29.70,WNW,292,0.0,-999.0,96,-99.99,,,0.18,Acu-Link.com,2013-05-24 10:05:00,
2013-05-24 06:20:00,64.0,63.1,29.70,West,270,0.0,-999.0,97,-99.99,,,0.18,Acu-Link.com,2013-05-24 10:20:00,
2013-05-24 06:35:00,64.0,63.1,29.71,West,270,0.0,-999.0,97,-99.99,,,0.18,Acu-Link.com,2013-05-24 10:35:00,
2013-05-24 06:50:00,64.2,63.3,29.71,West,270,0.0,-999.0,97,-99.99,,,0.18,Acu-Link.com,2013-05-24 10:50:00,
2013-05-24 07:05:00,64.9,64.0,29.72,West,270,0.0,-999.0,97,-99.99,,,0.18,Acu-Link.com,2013-05-24 11:05:00,
2013-05-24 07:21:00,65.5,64.6,29.73,West,270,0.0,-999.0,97,-99.99,,,0.18,Acu-Link.com,2013-05-24 11:21:00,
2013-05-24 07:36:00,67.3,65.8,29.72,East,90,0.0,-999.0,95,-99.99,,,0.18,Acu-Link.com,2013-05-24 11:36:00,
2013-05-24 07:51:00,69.1,65.4,29.73,NNE,22,0.0,-999.0,88,-99.99,,,0.18,Acu-Link.com,2013-05-24 11:51:00,
2013-05-24 08:06:00,68.7,65.0,29.73,NNW,337,2.7,-999.0,88,-99.99,,,0.18,Acu-Link.com,2013-05-24 12:06:00,
2013-05-24 08:21:00,69.1,65.1,29.74,SSW,202,2.2,-999.0,87,-99.99,,,0.18,Acu-Link.com,2013-05-24 12:21:00,
2013-05-24 08:37:00,68.9,64.5,29.73,SW,225,4.2,-999.0,86,-99.99,,,0.18,Acu-Link.com,2013-05-24 12:37:00,
2013-05-24 08:52:00,68.4,64.4,29.75,WNW,292,1.7,-999.0,87,-99.99,,,0.18,Acu-Link.com,2013-05-24 12:52:00,
2013-05-24 09:07:00,68.9,64.9,29.75,NNE,22,1.1,-999.0,87,-99.99,,,0.18,Acu-Link.com,2013-05-24 13:07:00,
2013-05-24 09:22:00,67.6,63.9,29.75,WNW,292,2.2,-999.0,88,-99.99,,,0.18,Acu-Link.com,2013-05-24 13:22:00,
2013-05-24 09:38:00,67.1,63.4,29.76,SSW,202,1.7,-999.0,88,-99.99,,,0.18,Acu-Link.com,2013-05-24 13:38:00,
2013-05-24 09:53:00,66.6,62.9,29.75,West,270,1.7,-999.0,88,-99.99,,,0.19,Acu-Link.com,2013-05-24 13:53:00,
2013-05-24 10:08:00,66.2,62.9,29.76,NW,315,1.1,-999.0,89,-99.99,,,0.21,Acu-Link.com,2013-05-24 14:08:00,
2013-05-24 10:23:00,66.4,62.4,29.75,NNE,22,1.7,-999.0,87,-99.99,,,0.21,Acu-Link.com,2013-05-24 14:23:00,
2013-05-24 10:38:00,67.6,63.6,29.76,NNW,337,3.2,-999.0,87,-99.99,,,0.21,Acu-Link.com,2013-05-24 14:38:00,
2013-05-24 10:54:00,65.8,60.8,29.77,SW,225,4.7,-999.0,84,-99.99,,,0.21,Acu-Link.com,2013-05-24 14:54:00,
2013-05-24 11:09:00,64.6,60.3,29.78,East,90,4.7,-999.0,86,-99.99,,,0.21,Acu-Link.com,2013-05-24 15:09:00,
2013-05-24 11:24:00,62.4,58.2,29.79,SSW,202,2.7,-999.0,86,-99.99,,,0.21,Acu-Link.com,2013-05-24 15:24:00,
2013-05-24 11:39:00,61.2,57.0,29.79,SW,225,5.8,-999.0,86,-99.99,,,0.22,Acu-Link.com,2013-05-24 15:39:00,
2013-05-24 11:54:00,61.7,57.5,29.80,NNE,22,4.7,-999.0,86,-99.99,,,0.22,Acu-Link.com,2013-05-24 15:54:00,
2013-05-24 12:10:00,59.5,55.9,29.81,West,270,5.8,-999.0,88,-99.99,,,0.22,Acu-Link.com,2013-05-24 16:10:00,
2013-05-24 12:25:00,59.0,55.8,29.82,ESE,112,4.7,-999.0,89,-99.99,,,0.22,Acu-Link.com,2013-05-24 16:25:00,
2013-05-24 12:40:00,58.5,54.3,29.82,ENE,67,2.2,-999.0,86,-99.99,,,0.23,Acu-Link.com,2013-05-24 16:40:00,
2013-05-24 12:55:00,57.9,53.1,29.82,ESE,112,4.2,-999.0,84,-99.99,,,0.23,Acu-Link.com,2013-05-24 16:55:00,
2013-05-24 13:10:00,56.1,51.7,29.83,East,90,4.7,-999.0,85,-99.99,,,0.23,Acu-Link.com,2013-05-24 17:10:00,
2013-05-24 13:26:00,54.7,50.6,29.85,West,270,4.7,-999.0,86,-99.99,,,0.23,Acu-Link.com,2013-05-24 17:26:00,
2013-05-24 13:41:00,54.5,50.1,29.85,SE,135,5.8,-999.0,85,-99.99,,,0.24,Acu-Link.com,2013-05-24 17:41:00,
2013-05-24 13:56:00,54.3,49.9,29.86,SSE,157,4.7,-999.0,85,-99.99,,,0.24,Acu-Link.com,2013-05-24 17:56:00,
2013-05-24 14:11:00,53.8,50.0,29.87,NE,45,2.7,-999.0,87,-99.99,,,0.24,Acu-Link.com,2013-05-24 18:11:00,
2013-05-24 14:27:00,54.3,50.8,29.87,SSE,157,4.7,-999.0,88,-99.99,,,0.25,Acu-Link.com,2013-05-24 18:27:00,
2013-05-24 14:42:00,54.3,50.8,29.87,South,180,5.3,-999.0,88,-99.99,,,0.27,Acu-Link.com,2013-05-24 18:42:00,
2013-05-24 14:57:00,54.1,49.7,29.87,NNE,22,4.7,-999.0,85,-99.99,,,0.27,Acu-Link.com,2013-05-24 18:57:00,
2013-05-24 15:12:00,53.2,48.2,29.87,NNW,337,2.7,-999.0,83,-99.99,,,0.27,Acu-Link.com,2013-05-24 19:12:00,
2013-05-24 15:28:00,53.6,48.9,29.88,East,90,5.3,-999.0,84,-99.99,,,0.27,Acu-Link.com,2013-05-24 19:28:00,
2013-05-24 15:43:00,52.9,48.2,29.88,NNE,22,3.2,-999.0,84,-99.99,,,0.28,Acu-Link.com,2013-05-24 19:43:00,
2013-05-24 15:58:00,53.1,48.1,29.88,North,0,2.7,-999.0,83,-99.99,,,0.29,Acu-Link.com,2013-05-24 19:58:00,
2013-05-24 16:13:00,53.1,47.8,29.89,ESE,112,3.2,-999.0,82,-99.99,,,0.29,Acu-Link.com,2013-05-24 20:13:00,
2013-05-24 16:29:00,54.3,47.9,29.90,NE,45,4.2,-999.0,79,-99.99,,,0.29,Acu-Link.com,2013-05-24 20:29:00,
2013-05-24 16:44:00,55.0,48.3,29.90,WNW,292,2.7,-999.0,78,-99.99,,,0.29,Acu-Link.com,2013-05-24 20:44:00,
2013-05-24 16:59:00,56.5,48.3,29.90,SSW,202,2.7,-999.0,74,-99.99,,,0.29,Acu-Link.com,2013-05-24 20:59:00,
2013-05-24 17:14:00,56.7,47.8,29.91,West,270,2.7,-999.0,72,-99.99,,,0.29,Acu-Link.com,2013-05-24 21:14:00,
2013-05-24 17:29:00,55.9,46.6,29.90,SE,135,3.7,-999.0,71,-99.99,,,0.29,Acu-Link.com,2013-05-24 21:29:00,
2013-05-24 17:45:00,56.1,46.1,29.92,North,0,4.7,-999.0,69,-99.99,,,0.29,Acu-Link.com,2013-05-24 21:45:00,
2013-05-24 18:00:00,55.6,46.0,29.91,SE,135,2.7,-999.0,70,-99.99,,,0.29,Acu-Link.com,2013-05-24 22:00:00,
2013-05-24 18:15:00,55.0,45.4,29.92,NNW,337,3.2,-999.0,70,-99.99,,,0.29,Acu-Link.com,2013-05-24 22:15:00,
2013-05-24 18:30:00,54.7,44.7,29.92,North,0,5.8,-999.0,69,-99.99,,,0.29,Acu-Link.com,2013-05-24 22:30:00,
2013-05-24 18:45:00,55.2,45.2,29.93,West,270,2.2,-999.0,69,-99.99,,,0.29,Acu-Link.com,2013-05-24 22:45:00,
2013-05-24 19:01:00,55.4,45.0,29.94,East,90,1.1,-999.0,68,-99.99,,,0.29,Acu-Link.com,2013-05-24 23:01:00,
2013-05-24 19:16:00,54.9,44.5,29.94,SSE,157,2.2,-999.0,68,-99.99,,,0.29,Acu-Link.com,2013-05-24 23:16:00,
2013-05-24 19:31:00,54.5,44.5,29.96,ESE,112,2.2,-999.0,69,-99.99,,,0.29,Acu-Link.com,2013-05-24 23:31:00,
2013-05-24 19:46:00,54.0,44.1,29.96,South,180,2.2,-999.0,69,-99.99,,,0.29,Acu-Link.com,2013-05-24 23:46:00,
2013-05-24 20:01:00,53.6,43.7,29.96,NNW,337,3.7,-999.0,69,-99.99,,,0.29,Acu-Link.com,2013-05-25 00:01:00,
2013-05-24 20:17:00,53.4,42.3,29.97,SE,135,3.7,-999.0,66,-99.99,,,0.29,Acu-Link.com,2013-05-25 00:17:00,
2013-05-24 20:32:00,53.1,42.8,29.97,NNE,22,2.7,-999.0,68,-99.99,,,0.29,Acu-Link.com,2013-05-25 00:32:00,
2013-05-24 20:47:00,52.9,42.6,29.98,ESE,112,2.2,-999.0,68,-99.99,,,0.29,Acu-Link.com,2013-05-25 00:47:00,
2013-05-24 21:02:00,52.7,42.4,29.98,ENE,67,4.2,-999.0,68,-99.99,,,0.29,Acu-Link.com,2013-05-25 01:02:00,
2013-05-24 21:17:00,52.5,42.2,29.99,South,180,1.7,-999.0,68,-99.99,,,0.29,Acu-Link.com,2013-05-25 01:17:00,
2013-05-24 21:33:00,52.3,42.1,30.00,South,180,1.7,-999.0,68,-99.99,,,0.29,Acu-Link.com,2013-05-25 01:33:00,
2013-05-24 21:48:00,51.4,44.4,30.01,North,0,5.3,-999.0,77,-99.99,,,0.29,Acu-Link.com,2013-05-25 01:48:00,
2013-05-24 22:03:00,51.1,44.8,30.01,NNW,337,2.2,-999.0,79,-99.99,,,0.29,Acu-Link.com,2013-05-25 02:03:00,
2013-05-24 22:18:00,50.7,44.4,30.01,SSW,202,5.3,-999.0,79,-99.99,,,0.29,Acu-Link.com,2013-05-25 02:18:00,
2013-05-24 22:34:00,50.7,43.8,30.02,NNW,337,4.2,-999.0,77,-99.99,,,0.29,Acu-Link.com,2013-05-25 02:34:00,
2013-05-24 22:49:00,50.4,40.6,30.02,SE,135,7.3,-999.0,69,-99.99,,,0.29,Acu-Link.com,2013-05-25 02:49:00,
2013-05-24 23:04:00,50.4,38.7,30.03,SSE,157,3.2,-999.0,64,-99.99,,,0.29,Acu-Link.com,2013-05-25 03:04:00,
2013-05-24 23:19:00,49.8,38.1,30.03,NW,315,6.8,-999.0,64,-99.99,,,0.29,Acu-Link.com,2013-05-25 03:19:00,
2013-05-24 23:34:00,49.8,38.1,30.03,WNW,292,10.4,-999.0,64,-99.99,,,0.29,Acu-Link.com,2013-05-25 03:34:00,
2013-05-24 23:50:00,49.8,39.3,30.03,SSE,157,0.0,-999.0,67,-99.99,,,0.29,Acu-Link.com,2013-05-25 03:50:00,